createdAt,value
2019-05-23T00:01:14.518Z,12.59
2019-05-23T00:04:14.249Z,12.58
2019-05-23T00:07:07.133Z,12.54
2019-05-23T00:09:58.248Z,12.53
2019-05-23T00:12:57.104Z,12.52
2019-05-23T00:15:44.836Z,12.55
2019-05-23T00:18:21.265Z,12.55
2019-05-23T00:20:51.672Z,12.58
2019-05-23T00:23:23.079Z,12.61
2019-05-23T00:25:54.327Z,12.62
2019-05-23T00:28:25.845Z,12.61
2019-05-23T00:31:05.154Z,12.64
2019-05-23T00:33:38.129Z,12.65
2019-05-23T00:36:11.174Z,12.67
2019-05-23T00:38:42.388Z,12.67
2019-05-23T00:41:14.328Z,12.68
2019-05-23T00:43:46.054Z,12.69
2019-05-23T00:46:17.773Z,12.71
2019-05-23T00:48:51.039Z,12.71
2019-05-23T00:51:23.496Z,12.72
2019-05-23T00:53:54.798Z,12.72
2019-05-23T00:56:26.311Z,12.74
2019-05-23T00:58:58.296Z,12.75
2019-05-23T01:01:29.993Z,12.74
2019-05-23T01:04:01.337Z,12.73
2019-05-23T01:06:33.449Z,12.71
2019-05-23T01:09:07.040Z,12.67
2019-05-23T01:11:38.564Z,12.63
2019-05-23T01:14:09.993Z,12.58
2019-05-23T01:16:41.228Z,12.54
2019-05-23T01:19:12.698Z,12.51
2019-05-23T01:21:56.659Z,12.46
2019-05-23T01:24:59.451Z,12.41
2019-05-23T01:27:31.151Z,12.37
2019-05-23T01:30:03.553Z,12.32
2019-05-23T01:32:44.328Z,12.27
2019-05-23T01:35:20.144Z,12.21
2019-05-23T01:37:51.390Z,12.20
2019-05-23T01:40:22.761Z,12.21
2019-05-23T01:42:54.239Z,12.18
2019-05-23T01:45:26.514Z,12.18
2019-05-23T01:47:57.774Z,12.16
2019-05-23T01:50:29.174Z,12.12
2019-05-23T01:53:00.470Z,12.05
2019-05-23T01:55:31.685Z,12.03
2019-05-23T01:58:03.572Z,11.99
2019-05-23T02:00:36.401Z,11.97
2019-05-23T02:03:08.072Z,11.96
2019-05-23T02:05:40.175Z,11.93
2019-05-23T02:08:12.722Z,11.94
2019-05-23T02:10:44.322Z,11.97
2019-05-23T02:13:15.959Z,11.98
2019-05-23T02:15:47.636Z,11.98
2019-05-23T02:18:18.861Z,11.99
2019-05-23T02:20:50.798Z,12.00
2019-05-23T02:23:22.721Z,12.00
2019-05-23T02:25:54.671Z,11.98
2019-05-23T02:28:26.139Z,11.98
2019-05-23T02:30:58.216Z,11.97
2019-05-23T02:33:30.644Z,11.96
2019-05-23T02:36:02.405Z,11.93
2019-05-23T02:38:44.303Z,11.90
2019-05-23T02:41:26.587Z,11.90
2019-05-23T02:44:03.668Z,11.90
2019-05-23T02:46:42.347Z,11.92
2019-05-23T02:49:15.863Z,11.89
2019-05-23T02:51:47.360Z,11.89
2019-05-23T02:54:19.948Z,11.89
2019-05-23T02:56:52.869Z,11.89
2019-05-23T02:59:47.957Z,11.89
2019-05-23T03:03:02.580Z,11.92
2019-05-23T03:05:37.356Z,11.93
2019-05-23T03:08:12.451Z,11.92
2019-05-23T03:11:09.925Z,11.93
2019-05-23T03:13:41.855Z,11.94
2019-05-23T03:16:19.459Z,11.93
2019-05-23T03:18:56.153Z,11.95
2019-05-23T03:21:29.300Z,11.94
2019-05-23T03:24:01.794Z,11.93
2019-05-23T03:27:16.856Z,11.94
2019-05-23T03:29:48.485Z,11.93
2019-05-23T03:32:50.866Z,11.94
2019-05-23T03:35:50.208Z,11.94
2019-05-23T03:38:23.061Z,11.95
2019-05-23T03:40:54.787Z,11.95
2019-05-23T03:43:26.757Z,11.93
2019-05-23T03:46:02.433Z,11.89
2019-05-23T03:48:34.129Z,11.86
2019-05-23T03:51:06.379Z,11.83
2019-05-23T03:53:38.538Z,11.82
2019-05-23T03:56:11.319Z,11.80
2019-05-23T03:58:44.231Z,11.80
2019-05-23T04:01:18.091Z,11.79
2019-05-23T04:03:50.522Z,11.83
2019-05-23T04:06:22.381Z,11.86
2019-05-23T04:08:54.128Z,11.91
2019-05-23T04:11:25.318Z,11.95
2019-05-23T04:13:56.623Z,11.99
2019-05-23T04:16:30.595Z,12.05
2019-05-23T04:19:01.161Z,12.07
2019-05-23T04:21:32.327Z,12.12
2019-05-23T04:24:04.016Z,12.14
2019-05-23T04:26:35.204Z,12.18
2019-05-23T04:29:06.532Z,12.20
2019-05-23T04:31:37.718Z,12.24
2019-05-23T04:34:09.880Z,12.28
2019-05-23T04:36:41.057Z,12.32
2019-05-23T04:39:13.276Z,12.35
2019-05-23T04:41:45.132Z,12.37
2019-05-23T04:44:18.239Z,12.74
2019-05-23T04:46:50.202Z,12.58
2019-05-23T04:49:21.650Z,12.59
2019-05-23T04:51:53.574Z,12.59
2019-05-23T04:54:26.097Z,12.63
2019-05-23T04:56:57.330Z,12.66
2019-05-23T04:59:28.640Z,12.69
2019-05-23T05:02:00.733Z,12.71
2019-05-23T05:04:32.516Z,12.75
2019-05-23T05:07:04.474Z,12.77
2019-05-23T05:09:35.818Z,12.79
2019-05-23T05:12:07.642Z,12.81
2019-05-23T05:14:38.942Z,12.84
2019-05-23T05:17:11.775Z,12.86
2019-05-23T05:19:43.053Z,12.89
2019-05-23T05:22:14.641Z,12.93
2019-05-23T05:24:46.163Z,12.97
2019-05-23T05:27:19.326Z,13.01
2019-05-23T05:29:50.770Z,13.05
2019-05-23T05:32:22.257Z,13.10
2019-05-23T05:34:53.507Z,13.17
2019-05-23T05:37:25.026Z,13.27
2019-05-23T05:39:56.352Z,13.31
2019-05-23T05:42:29.392Z,13.37
2019-05-23T05:45:00.891Z,13.43
2019-05-23T05:47:32.221Z,13.49
2019-05-23T05:50:05.775Z,13.56
2019-05-23T05:52:37.441Z,13.61
2019-05-23T05:55:08.690Z,13.66
2019-05-23T05:57:39.907Z,13.72
2019-05-23T06:00:27.842Z,13.76
2019-05-23T06:03:05.543Z,13.81
2019-05-23T06:05:38.947Z,13.87
2019-05-23T06:08:10.800Z,13.93
2019-05-23T06:10:43.283Z,13.98
2019-05-23T06:13:15.280Z,14.01
2019-05-23T06:15:49.017Z,14.05
2019-05-23T06:18:20.658Z,14.10
2019-05-23T06:20:51.916Z,14.15
2019-05-23T06:23:23.133Z,14.20
2019-05-23T06:25:54.721Z,14.24
2019-05-23T06:28:26.023Z,14.29
2019-05-23T06:30:58.115Z,14.35
2019-05-23T06:33:30.697Z,14.41
2019-05-23T06:36:02.758Z,14.48
2019-05-23T06:38:35.222Z,14.53
2019-05-23T06:41:06.776Z,14.50
2019-05-23T06:43:38.583Z,14.50
2019-05-23T06:46:09.825Z,14.55
2019-05-23T06:48:45.601Z,14.61
2019-05-23T06:51:14.207Z,14.68
2019-05-23T06:53:45.457Z,14.74
2019-05-23T06:56:17.710Z,14.77
2019-05-23T06:58:48.985Z,14.83
2019-05-23T07:01:20.478Z,14.88
2019-05-23T07:03:52.043Z,14.94
2019-05-23T07:06:25.045Z,15.04
2019-05-23T07:08:57.356Z,15.09
2019-05-23T07:11:28.763Z,15.12
2019-05-23T07:13:59.974Z,15.16
2019-05-23T07:16:31.510Z,15.22
2019-05-23T07:19:02.752Z,15.29
2019-05-23T07:21:34.350Z,15.38
2019-05-23T07:24:06.493Z,15.47
2019-05-23T07:26:38.080Z,15.56
2019-05-23T07:29:10.419Z,15.64
2019-05-23T07:31:41.710Z,15.72
2019-05-23T07:34:12.951Z,15.81
2019-05-23T07:36:44.318Z,15.82
2019-05-23T07:39:16.756Z,15.86
2019-05-23T07:41:48.807Z,15.90
2019-05-23T07:44:20.527Z,15.88
2019-05-23T07:46:52.509Z,15.86
2019-05-23T07:49:24.121Z,15.89
2019-05-23T07:51:55.402Z,15.89
2019-05-23T07:54:34.892Z,15.91
2019-05-23T07:57:10.755Z,15.94
2019-05-23T07:59:42.503Z,16.02
2019-05-23T08:02:25.832Z,16.08
2019-05-23T08:04:59.303Z,16.13
2019-05-23T08:07:32.777Z,16.18
2019-05-23T08:10:03.454Z,16.23
2019-05-23T08:12:34.686Z,16.27
2019-05-23T08:15:06.262Z,16.32
2019-05-23T08:17:38.285Z,16.34
2019-05-23T08:20:12.536Z,16.36
2019-05-23T08:22:43.997Z,16.37
2019-05-23T08:25:15.287Z,16.39
2019-05-23T08:27:46.809Z,16.40
2019-05-23T08:30:18.343Z,16.43
2019-05-23T08:32:49.862Z,16.44
2019-05-23T08:35:21.933Z,16.47
2019-05-23T08:37:53.606Z,16.47
2019-05-23T08:40:27.909Z,16.48
2019-05-23T08:42:59.057Z,16.51
2019-05-23T08:45:30.527Z,16.52
2019-05-23T08:48:01.986Z,16.51
2019-05-23T08:50:33.602Z,16.52
2019-05-23T08:53:05.128Z,16.55
2019-05-23T08:55:37.194Z,16.59
2019-05-23T08:58:09.383Z,16.61
2019-05-23T09:00:41.527Z,16.63
2019-05-23T09:03:12.899Z,16.67
2019-05-23T09:05:44.672Z,16.71
2019-05-23T09:08:17.377Z,16.74
2019-05-23T09:10:50.715Z,16.78
2019-05-23T09:13:22.007Z,16.83
2019-05-23T09:15:53.692Z,16.90
2019-05-23T09:18:25.244Z,16.93
2019-05-23T09:20:57.161Z,16.96
2019-05-23T09:23:28.664Z,17.01
2019-05-23T09:26:00.045Z,17.05
2019-05-23T09:28:31.721Z,17.08
2019-05-23T09:31:02.977Z,17.11
2019-05-23T09:33:35.602Z,17.13
2019-05-23T09:36:06.978Z,17.17
2019-05-23T09:38:38.337Z,17.21
2019-05-23T09:41:09.996Z,17.25
2019-05-23T09:43:43.082Z,17.28
2019-05-23T09:46:14.441Z,17.29
2019-05-23T09:48:45.758Z,17.33
2019-05-23T09:51:16.996Z,17.37
2019-05-23T09:53:48.376Z,17.42
2019-05-23T09:56:19.632Z,17.42
2019-05-23T09:58:50.911Z,17.45
2019-05-23T10:01:22.570Z,17.49
2019-05-23T10:03:54.044Z,17.56
2019-05-23T10:06:29.584Z,17.62
2019-05-23T10:09:00.929Z,17.67
2019-05-23T10:11:33.790Z,17.74
2019-05-23T10:14:07.322Z,17.79
2019-05-23T10:16:38.675Z,17.84
2019-05-23T10:19:10.166Z,17.91
2019-05-23T10:21:42.124Z,18.00
2019-05-23T10:24:13.998Z,18.04
2019-05-23T10:26:45.522Z,18.11
2019-05-23T10:29:16.994Z,18.13
2019-05-23T10:31:48.475Z,18.16
2019-05-23T10:34:19.626Z,18.19
2019-05-23T10:36:50.949Z,18.22
2019-05-23T10:39:22.291Z,18.24
2019-05-23T10:41:53.538Z,18.27
2019-05-23T10:44:24.993Z,18.33
2019-05-23T10:46:56.196Z,18.35
2019-05-23T10:49:27.953Z,18.39
2019-05-23T10:51:59.388Z,18.46
2019-05-23T10:54:30.979Z,18.52
2019-05-23T10:57:02.237Z,18.59
2019-05-23T10:59:33.625Z,18.63
2019-05-23T11:02:06.459Z,18.67
2019-05-23T11:04:40.471Z,18.72
2019-05-23T11:07:12.976Z,18.76
2019-05-23T11:09:44.501Z,18.82
2019-05-23T11:12:18.156Z,18.86
2019-05-23T11:14:50.112Z,18.92
2019-05-23T11:17:21.353Z,18.98
2019-05-23T11:19:52.519Z,19.05
2019-05-23T11:22:23.806Z,19.11
2019-05-23T11:24:55.108Z,19.17
2019-05-23T11:27:26.880Z,19.21
2019-05-23T11:29:58.398Z,19.30
2019-05-23T11:32:30.100Z,19.37
2019-05-23T11:35:01.769Z,19.39
2019-05-23T11:37:33.520Z,19.46
2019-05-23T11:40:05.455Z,19.54
2019-05-23T11:42:36.716Z,19.54
2019-05-23T11:45:08.767Z,19.52
2019-05-23T11:47:40.268Z,19.55
2019-05-23T11:50:11.834Z,19.63
2019-05-23T11:52:43.266Z,19.75
2019-05-23T11:55:14.820Z,19.86
2019-05-23T11:57:49.109Z,19.96
2019-05-23T12:00:27.172Z,20.02
2019-05-23T12:02:58.851Z,20.06
2019-05-23T12:05:30.411Z,20.15
2019-05-23T12:08:01.898Z,20.25
2019-05-23T12:10:36.535Z,20.34
2019-05-23T12:13:08.174Z,20.61
2019-05-23T12:15:41.083Z,20.56
2019-05-23T12:18:12.462Z,20.66
2019-05-23T12:20:43.959Z,20.76
2019-05-23T12:23:15.570Z,20.83
2019-05-23T12:28:17.883Z,21.05
2019-05-23T12:30:49.789Z,21.14
2019-05-23T12:33:21.099Z,21.23
2019-05-23T12:35:52.282Z,21.35
2019-05-23T12:38:23.575Z,21.47
2019-05-23T12:40:54.746Z,21.56
2019-05-23T12:43:26.170Z,21.84
2019-05-23T12:45:57.358Z,21.84
2019-05-23T12:48:53.620Z,21.91
2019-05-23T12:51:28.474Z,21.96
2019-05-23T12:53:59.784Z,22.09
2019-05-23T12:56:31.548Z,22.18
2019-05-23T12:59:04.929Z,22.31
2019-05-23T13:01:38.186Z,22.49
2019-05-23T13:04:10.916Z,22.67
2019-05-23T13:06:42.261Z,22.87
2019-05-23T13:09:13.542Z,23.07
2019-05-23T13:11:44.843Z,23.29
2019-05-23T13:14:16.345Z,23.47
2019-05-23T13:16:47.640Z,23.69
2019-05-23T13:19:19.324Z,23.81
2019-05-23T13:21:50.749Z,23.98
2019-05-23T13:24:22.217Z,24.16
2019-05-23T13:26:53.609Z,24.42
2019-05-23T13:29:25.086Z,24.80
2019-05-23T13:31:56.759Z,25.10
2019-05-23T13:34:28.085Z,25.57
2019-05-23T13:36:59.663Z,26.77
2019-05-23T13:39:31.339Z,28.89
2019-05-23T13:42:02.581Z,30.76
2019-05-23T13:44:35.908Z,31.39
2019-05-23T13:47:07.294Z,31.26
2019-05-23T13:49:39.648Z,31.12
2019-05-23T13:52:11.225Z,31.60
2019-05-23T13:54:42.567Z,31.53
2019-05-23T13:57:14.283Z,31.36
2019-05-23T13:59:45.428Z,31.14
2019-05-23T14:02:16.885Z,30.79
2019-05-23T14:04:48.452Z,30.69
2019-05-23T14:07:19.801Z,30.54
2019-05-23T14:09:51.604Z,30.10
2019-05-23T14:12:23.940Z,29.90
2019-05-23T14:14:55.253Z,30.18
2019-05-23T14:17:36.148Z,30.58
2019-05-23T14:20:10.077Z,30.57
2019-05-23T14:22:46.334Z,30.23
2019-05-23T14:25:18.700Z,29.74
2019-05-23T14:28:04.319Z,29.27
2019-05-23T14:31:00.806Z,28.69
2019-05-23T14:33:51.157Z,28.08
2019-05-23T14:36:57.835Z,27.76
2019-05-23T14:39:47.962Z,27.51
2019-05-23T14:42:37.190Z,27.48
2019-05-23T14:45:24.850Z,27.57
2019-05-23T14:48:02.785Z,27.89
2019-05-23T14:50:52.671Z,28.34
2019-05-23T14:53:26.528Z,28.69
2019-05-23T14:55:58.106Z,28.82
2019-05-23T14:58:29.890Z,28.85
2019-05-23T15:01:02.498Z,29.36
2019-05-23T15:03:35.983Z,30.17
2019-05-23T15:06:08.022Z,30.23
2019-05-23T15:08:50.387Z,29.97
2019-05-23T15:11:12.902Z,30.18
2019-05-23T15:13:44.245Z,31.13
2019-05-23T15:16:16.630Z,31.78
2019-05-23T15:18:48.011Z,31.83
2019-05-23T15:21:19.580Z,31.46
2019-05-23T15:23:50.841Z,31.06
2019-05-23T15:26:23.673Z,30.67
2019-05-23T15:28:55.235Z,30.45
2019-05-23T15:31:26.628Z,30.12
2019-05-23T15:33:58.797Z,29.74
2019-05-23T15:36:30.467Z,29.35
2019-05-23T15:39:09.663Z,28.93
2019-05-23T15:41:34.765Z,28.54
2019-05-23T15:44:22.626Z,28.17
2019-05-23T15:46:40.805Z,27.95
2019-05-23T15:49:13.732Z,27.76
2019-05-23T15:51:54.638Z,27.55
2019-05-23T15:54:34.536Z,27.28
2019-05-23T15:57:14.524Z,27.01
2019-05-23T16:00:03.790Z,26.74
2019-05-23T16:02:42.394Z,26.50
2019-05-23T16:05:14.868Z,26.21
2019-05-23T16:07:46.475Z,25.99
2019-05-23T16:10:18.094Z,25.83
2019-05-23T16:12:49.764Z,25.71
2019-05-23T16:15:21.038Z,25.61
2019-05-23T16:17:52.389Z,25.52
2019-05-23T16:20:24.580Z,25.42
2019-05-23T16:22:56.229Z,25.35
2019-05-23T16:25:27.465Z,25.26
2019-05-23T16:27:58.893Z,25.16
2019-05-23T16:30:31.216Z,25.07
2019-05-23T16:33:02.651Z,24.95
2019-05-23T16:35:34.035Z,24.86
2019-05-23T16:38:05.581Z,24.71
2019-05-23T16:40:36.800Z,24.60
2019-05-23T16:43:08.405Z,24.42
2019-05-23T16:45:39.662Z,24.23
2019-05-23T16:48:11.018Z,24.12
2019-05-23T16:50:42.272Z,24.06
2019-05-23T16:53:13.483Z,23.99
2019-05-23T16:55:57.729Z,23.88
2019-05-23T16:58:51.176Z,24.09
2019-05-23T17:01:57.071Z,23.78
2019-05-23T17:04:32.126Z,23.65
2019-05-23T17:07:14.928Z,23.54
2019-05-23T17:10:08.372Z,23.45
2019-05-23T17:12:53.065Z,23.36
2019-05-23T17:15:42.733Z,23.64
2019-05-23T17:18:26.898Z,23.38
2019-05-23T17:21:04.000Z,23.23
2019-05-23T17:23:47.109Z,23.11
2019-05-23T17:26:24.539Z,23.39
2019-05-23T17:28:55.953Z,23.49
2019-05-23T17:31:32.975Z,23.22
2019-05-23T17:34:04.292Z,23.14
2019-05-23T17:36:35.587Z,23.07
2019-05-23T17:39:10.258Z,23.02
2019-05-23T17:41:42.696Z,22.98
2019-05-23T17:44:14.690Z,22.95
2019-05-23T17:46:46.216Z,22.97
2019-05-23T17:49:17.836Z,22.98
2019-05-23T17:51:49.307Z,22.98
2019-05-23T17:54:20.834Z,23.01
2019-05-23T17:56:52.054Z,23.06
2019-05-23T17:59:23.418Z,23.12
2019-05-23T18:01:55.449Z,23.22
2019-05-23T18:04:28.209Z,23.27
2019-05-23T18:06:59.664Z,23.30
2019-05-23T18:09:31.889Z,23.28
2019-05-23T18:12:03.927Z,23.22
2019-05-23T18:14:36.753Z,23.15
2019-05-23T18:17:09.443Z,23.07
2019-05-23T18:19:42.151Z,22.96
2019-05-23T18:22:14.099Z,22.87
2019-05-23T18:24:46.051Z,22.77
2019-05-23T18:27:17.748Z,22.67
2019-05-23T18:29:49.437Z,22.58
2019-05-23T18:32:24.959Z,22.48
2019-05-23T18:34:56.185Z,22.39
2019-05-23T18:37:27.530Z,22.31
2019-05-23T18:39:58.737Z,22.20
2019-05-23T18:42:30.084Z,22.11
2019-05-23T18:45:01.938Z,22.03
2019-05-23T18:47:38.422Z,21.94
2019-05-23T18:50:11.520Z,21.85
2019-05-23T18:52:44.039Z,21.76
2019-05-23T18:55:16.998Z,21.67
2019-05-23T18:57:48.505Z,21.57
2019-05-23T19:00:25.266Z,21.48
2019-05-23T19:02:56.845Z,21.39
2019-05-23T19:05:29.767Z,21.30
2019-05-23T19:08:04.898Z,21.21
2019-05-23T19:10:38.213Z,21.12
2019-05-23T19:13:09.604Z,21.04
2019-05-23T19:15:41.612Z,20.95
2019-05-23T19:18:13.117Z,20.83
2019-05-23T19:20:44.710Z,20.75
2019-05-23T19:23:16.333Z,20.68
2019-05-23T19:25:49.697Z,20.60
2019-05-23T19:28:22.532Z,20.52
2019-05-23T19:30:54.096Z,20.44
2019-05-23T19:33:26.197Z,20.74
2019-05-23T19:35:57.573Z,20.47
2019-05-23T19:38:28.801Z,20.35
2019-05-23T19:41:00.114Z,20.25
2019-05-23T19:43:33.386Z,20.18
2019-05-23T19:46:04.973Z,20.09
2019-05-23T19:48:39.794Z,20.02
2019-05-23T19:51:13.597Z,19.95
2019-05-23T19:53:45.124Z,19.87
2019-05-23T19:56:22.803Z,19.81
2019-05-23T19:58:58.444Z,19.74
2019-05-23T20:01:34.187Z,19.66
2019-05-23T20:04:07.197Z,19.60
2019-05-23T20:06:39.204Z,19.52
2019-05-23T20:09:13.511Z,19.46
2019-05-23T20:11:56.267Z,19.40
2019-05-23T20:14:44.241Z,19.34
2019-05-23T20:17:21.932Z,19.27
2019-05-23T20:20:07.561Z,19.20
2019-05-23T20:22:53.966Z,19.13
2019-05-23T20:25:28.847Z,19.06
2019-05-23T20:28:07.389Z,19.01
2019-05-23T20:30:57.629Z,18.96
2019-05-23T20:40:19.583Z,18.79
2019-05-23T20:43:09.209Z,18.74
2019-05-23T20:45:49.362Z,18.67
2019-05-23T20:48:20.988Z,18.64
2019-05-23T20:50:52.974Z,18.60
2019-05-23T20:53:27.551Z,18.56
2019-05-23T20:55:58.982Z,18.52
2019-05-23T20:58:30.518Z,18.48
2019-05-23T21:01:22.403Z,18.44
2019-05-23T21:03:58.221Z,18.39
2019-05-23T21:06:31.602Z,18.32
2019-05-23T21:09:05.141Z,18.27
2019-05-23T21:11:36.939Z,18.23
2019-05-23T21:15:06.291Z,18.17
2019-05-23T21:17:31.943Z,18.13
2019-05-23T21:20:11.391Z,18.05
2019-05-23T21:22:49.057Z,18.01
2019-05-23T21:25:20.309Z,17.96
2019-05-23T21:27:52.549Z,17.92
2019-05-23T21:30:33.521Z,17.89
2019-05-23T21:33:06.917Z,17.84
2019-05-23T21:35:46.101Z,17.80
2019-05-23T21:38:17.506Z,17.76
2019-05-23T21:40:49.700Z,17.72
2019-05-23T21:43:22.663Z,17.68
2019-05-23T21:45:55.538Z,17.66
2019-05-23T21:48:30.056Z,17.63
2019-05-23T21:51:03.159Z,17.61
2019-05-23T21:53:35.207Z,17.58
2019-05-23T21:56:07.099Z,17.54
2019-05-23T21:58:38.575Z,17.50
2019-05-23T22:02:06.135Z,17.47
2019-05-23T22:04:52.925Z,17.42
2019-05-23T22:07:27.317Z,17.34
2019-05-23T22:10:00.780Z,17.30
2019-05-23T22:12:37.474Z,17.27
2019-05-23T22:15:09.043Z,17.22
2019-05-23T22:17:45.279Z,17.19
2019-05-23T22:20:18.297Z,17.16
2019-05-23T22:22:51.700Z,17.13
2019-05-23T22:25:34.549Z,17.10
2019-05-23T22:28:06.120Z,17.05
2019-05-23T22:30:48.332Z,17.01
2019-05-23T22:33:22.432Z,16.98
2019-05-23T22:35:56.945Z,16.93
2019-05-23T22:38:29.224Z,16.90
2019-05-23T22:41:03.946Z,16.86
2019-05-23T22:43:35.220Z,16.83
2019-05-23T22:46:07.764Z,16.79
2019-05-23T22:48:39.066Z,16.75
2019-05-23T22:51:11.733Z,16.72
2019-05-23T22:53:43.430Z,16.68
2019-05-23T22:56:20.406Z,16.65
2019-05-23T22:58:52.214Z,16.61
2019-05-23T23:01:29.149Z,16.57
2019-05-23T23:04:00.947Z,16.55
2019-05-23T23:06:33.735Z,16.52
2019-05-23T23:09:09.518Z,16.49
2019-05-23T23:11:40.981Z,16.46
2019-05-23T23:14:12.575Z,16.41
2019-05-23T23:16:45.670Z,16.38
2019-05-23T23:19:17.449Z,16.35
2019-05-23T23:21:48.802Z,16.30
2019-05-23T23:24:20.443Z,16.27
2019-05-23T23:26:51.664Z,16.22
2019-05-23T23:29:23.308Z,16.19
2019-05-23T23:31:56.529Z,16.15
2019-05-23T23:34:27.962Z,16.10
2019-05-23T23:37:00.442Z,16.05
2019-05-23T23:39:32.014Z,15.99
2019-05-23T23:42:04.710Z,15.95
2019-05-23T23:44:35.172Z,15.89
2019-05-23T23:47:24.333Z,15.85
2019-05-23T23:50:13.221Z,15.81
2019-05-23T23:53:05.187Z,15.74
2019-05-23T23:55:57.363Z,15.68
2019-05-23T23:58:46.706Z,15.64
